Few Clouds Current Weather (METAR) For Amsterdam Schiphol Airport

All times on the weather descriptions are local

Observed at 01:25 - (7 mins ago)

Few Clouds

10°C

Few Clouds
Clouds: Few Clouds at 4,000ft
Wind: 200° at 07 knots
Visibility: Greater than 10km
QNH: 1021
Dew Point: 9°C
Runways with a headwind: Runway 24, Runway 27, Runways 18L/C/R

Sunrise Today: 08:23
Sunset Today: 18:26

Forecast Weather (TAF) For Amsterdam Schiphol Airport

Issued at 02:00 - (5 days 0 hrs ago)


Runways with a headwind: Unable to determine, wind is clam

Forecast valid until 02:00 on Friday

METAR/TAF RAW METAR / TAF

EHAM 252325Z 20007KT 9999 FEW040 10/09 Q1021 NOSIG

Weather Widget

Put weather from any of our airports on your website with our weather widget.

Find Another Search

Airport Search


Please Wait Please Wait - Loading
Close
Close

Login

Username:

Password:

Remember Me:

Remember me on this computer

Forgotten your password? Get a reset password sent to your registered e-mail address

Close

User Private Message

Subject:

Message: